Time;durP1;ratioP1;P1;durP2;ratioP2;P2;SDS_P1;SDS_P2;PMS_P1;PMS_P2;Temp;Humidity;BMP_temperature;BMP_pressure;BME280_temperature;BME280_humidity;BME280_pressure;Samples;Min_cycle;Max_cycle;Signal;HPM_P1;HPM_P2
2023/03/28 00:01:05;;;;;;;1.83;1.73;;;1.20;99.90;;;;;;5052408;28;20459;-74
2023/03/28 00:03:34;;;;;;;2.00;1.90;;;1.20;99.90;;;;;;5053032;28;20472;-69
2023/03/28 00:06:00;;;;;;;2.00;1.90;;;1.10;99.90;;;;;;5052942;28;20413;-74
2023/03/28 00:08:30;;;;;;;2.60;1.90;;;1.10;99.90;;;;;;5051736;28;20798;-68
2023/03/28 00:11:11;;;;;;;2.60;2.40;;;1.00;99.90;;;;;;5052264;28;20405;-74
2023/03/28 00:13:37;;;;;;;2.20;2.10;;;1.10;99.90;;;;;;5041514;28;20426;-69
2023/03/28 00:16:11;;;;;;;1.97;1.87;;;1.00;99.90;;;;;;5033131;28;20441;-69
2023/03/28 00:18:37;;;;;;;1.97;1.87;;;1.00;99.90;;;;;;5033287;28;20406;-68
2023/03/28 00:21:06;;;;;;;1.97;1.87;;;0.90;99.90;;;;;;5032195;28;20454;-69
2023/03/28 00:23:34;;;;;;;1.83;1.73;;;0.90;99.90;;;;;;5033123;28;20434;-74
2023/03/28 00:26:11;;;;;;;2.50;1.80;;;1.00;99.90;;;;;;5032475;28;20406;-74
2023/03/28 00:28:37;;;;;;;2.10;2.00;;;0.90;99.90;;;;;;5033111;28;20917;-68
2023/03/28 00:31:05;;;;;;;2.23;2.03;;;0.80;99.90;;;;;;5031487;28;20438;-68
2023/03/28 00:33:31;;;;;;;2.40;1.87;;;0.80;99.90;;;;;;5032853;28;20422;-69
2023/03/28 00:35:57;;;;;;;2.13;2.03;;;0.80;99.90;;;;;;5032986;28;20809;-74
2023/03/28 00:38:23;;;;;;;2.63;2.07;;;0.70;99.90;;;;;;5032821;28;20501;-69
2023/03/28 00:40:48;;;;;;;2.10;2.00;;;0.70;99.90;;;;;;5031886;28;20290;-68
2023/03/28 00:43:14;;;;;;;1.97;1.80;;;0.70;99.90;;;;;;5031046;28;20325;-74
2023/03/28 00:45:41;;;;;;;2.40;2.30;;;0.60;99.90;;;;;;5032828;28;20160;-74
2023/03/28 00:48:12;;;;;;;3.00;2.80;;;0.70;99.90;;;;;;5033304;28;20277;-69
2023/03/28 00:50:47;;;;;;;2.60;2.47;;;0.80;99.90;;;;;;5031921;28;20429;-74
2023/03/28 00:53:22;;;;;;;2.30;2.20;;;0.80;99.90;;;;;;5032853;28;20475;-73
2023/03/28 00:55:56;;;;;;;2.30;2.10;;;0.80;99.90;;;;;;5032748;28;20397;-74
2023/03/28 00:58:28;;;;;;;7.33;2.30;;;0.80;99.90;;;;;;5049291;28;20941;-69
2023/03/28 01:00:55;;;;;;;2.43;2.27;;;0.70;99.90;;;;;;5050239;28;20457;-74
2023/03/28 01:03:27;;;;;;;3.60;2.27;;;0.70;99.90;;;;;;5049844;28;20797;-69
2023/03/28 01:05:53;;;;;;;2.17;2.07;;;0.70;99.90;;;;;;5033062;28;20497;-74
2023/03/28 01:08:22;;;;;;;2.30;2.20;;;0.60;99.90;;;;;;5036552;28;20410;-74
2023/03/28 01:10:48;;;;;;;2.10;2.00;;;0.60;99.90;;;;;;5035692;28;20414;-74
2023/03/28 01:13:18;;;;;;;2.17;2.07;;;0.60;99.90;;;;;;5035555;28;20934;-74
2023/03/28 01:15:44;;;;;;;2.25;2.05;;;0.60;99.90;;;;;;5035764;28;20413;-68
2023/03/28 01:18:11;;;;;;;2.50;2.30;;;0.60;99.90;;;;;;5036342;28;20655;-74
2023/03/28 01:20:57;;;;;;;2.30;2.10;;;0.60;99.90;;;;;;5034784;28;20457;-68
2023/03/28 01:23:47;;;;;;;2.10;2.00;;;0.60;99.90;;;;;;5036235;28;20933;-72
2023/03/28 01:26:43;;;;;;;2.07;1.80;;;0.60;99.90;;;;;;5036135;28;20255;-68
2023/03/28 01:29:27;;;;;;;2.23;2.13;;;0.50;99.90;;;;;;5036223;28;20402;-74
2023/03/28 01:32:46;;;;;;;2.10;2.00;;;0.40;99.90;;;;;;5034970;28;20426;-69
2023/03/28 01:35:17;;;;;;;2.43;2.23;;;0.40;99.90;;;;;;5053884;28;20421;-74
2023/03/28 01:37:50;;;;;;;2.10;1.93;;;0.40;99.90;;;;;;5039647;28;20426;-74
2023/03/28 01:40:21;;;;;;;4.22;2.42;;;0.50;99.90;;;;;;5034921;28;20450;-74
2023/03/28 01:43:08;;;;;;;2.37;2.17;;;0.50;99.90;;;;;;5034644;28;20219;-68
2023/03/28 01:45:47;;;;;;;2.37;2.27;;;0.50;99.90;;;;;;5035826;28;20394;-68
2023/03/28 01:48:37;;;;;;;2.20;2.00;;;0.50;99.90;;;;;;5035536;28;20891;-68
2023/03/28 01:51:27;;;;;;;2.35;2.22;;;0.40;99.90;;;;;;5034759;28;20714;-68
2023/03/28 01:54:01;;;;;;;2.22;2.13;;;0.50;99.90;;;;;;5035767;28;20176;-74
2023/03/28 01:56:37;;;;;;;2.20;2.10;;;0.40;99.90;;;;;;5037114;28;20175;-68
2023/03/28 01:59:13;;;;;;;2.25;2.00;;;0.40;99.90;;;;;;5055362;28;20906;-74
2023/03/28 02:01:48;;;;;;;2.50;2.30;;;0.40;99.90;;;;;;5054551;28;20191;-74
2023/03/28 02:04:19;;;;;;;3.67;2.45;;;0.30;99.90;;;;;;5055349;28;20428;-68
2023/03/28 02:06:46;;;;;;;2.10;2.00;;;0.40;99.90;;;;;;5055368;28;20316;-71
2023/03/28 02:09:14;;;;;;;2.30;2.20;;;0.30;99.90;;;;;;5053673;28;20443;-73
2023/03/28 02:11:42;;;;;;;2.00;1.90;;;0.30;99.90;;;;;;5049377;28;20853;-68
2023/03/28 02:14:17;;;;;;;2.10;2.00;;;0.30;99.90;;;;;;5034307;28;20422;-68
2023/03/28 02:16:44;;;;;;;3.60;2.20;;;0.30;99.90;;;;;;5035236;28;20496;-68
2023/03/28 02:19:12;;;;;;;2.10;2.00;;;0.30;99.90;;;;;;5034037;28;20460;-74
2023/03/28 02:21:57;;;;;;;2.45;2.35;;;0.30;99.90;;;;;;5034327;28;20414;-68
2023/03/28 02:24:24;;;;;;;1.98;1.88;;;0.20;99.90;;;;;;5035160;28;20168;-73
2023/03/28 02:26:52;;;;;;;3.90;2.45;;;0.20;99.90;;;;;;5034847;28;20609;-73
2023/03/28 02:29:18;;;;;;;2.60;2.40;;;0.20;99.90;;;;;;5035168;28;20179;-74
2023/03/28 02:31:45;;;;;;;2.30;2.10;;;0.10;99.90;;;;;;5034062;28;20207;-74
2023/03/28 02:34:11;;;;;;;3.00;2.50;;;0.10;99.90;;;;;;5034942;28;20195;-68
2023/03/28 02:37:07;;;;;;;2.10;2.00;;;0.10;99.90;;;;;;5035027;28;20196;-68
2023/03/28 02:39:53;;;;;;;2.80;2.17;;;0.10;99.90;;;;;;5034814;28;20964;-67
2023/03/28 02:42:43;;;;;;;2.30;2.15;;;0.10;99.90;;;;;;5032426;28;20203;-68
2023/03/28 02:45:17;;;;;;;2.80;2.57;;;0.00;99.90;;;;;;5034879;28;20171;-68
2023/03/28 02:48:10;;;;;;;2.60;2.50;;;0.10;99.90;;;;;;5033196;28;20406;-74
2023/03/28 02:50:48;;;;;;;2.30;2.20;;;0.10;99.90;;;;;;5032725;28;20776;-74
2023/03/28 02:53:34;;;;;;;2.50;2.40;;;0.10;99.90;;;;;;5033373;28;20556;-67
2023/03/28 02:56:23;;;;;;;2.60;2.50;;;0.10;99.90;;;;;;5050442;28;20232;-74
2023/03/28 02:58:56;;;;;;;2.60;2.50;;;0.10;99.90;;;;;;5033287;28;20464;-68
2023/03/28 03:01:24;;;;;;;7.63;3.00;;;0.10;99.90;;;;;;5033590;28;20410;-67
2023/03/28 03:03:50;;;;;;;1.77;1.67;;;0.10;99.90;;;;;;5034880;28;20203;-74
2023/03/28 03:06:16;;;;;;;2.55;2.35;;;0.10;99.90;;;;;;5033965;28;20532;-74
2023/03/28 03:08:43;;;;;;;2.13;2.03;;;0.00;99.90;;;;;;5034366;28;20171;-69
2023/03/28 03:11:09;;;;;;;2.35;2.25;;;-0.10;99.90;;;;;;5033249;28;20395;-68
2023/03/28 03:13:34;;;;;;;1.90;1.80;;;0.00;99.90;;;;;;5034283;28;20182;-67
2023/03/28 03:16:00;;;;;;;2.63;2.43;;;-0.10;99.90;;;;;;5034400;28;20449;-74
2023/03/28 03:18:26;;;;;;;2.93;2.70;;;-0.10;99.10;;;;;;5034176;28;20418;-74
2023/03/28 03:20:52;;;;;;;2.30;2.17;;;-0.20;97.30;;;;;;5033742;28;20196;-68
2023/03/28 03:23:18;;;;;;;2.50;2.30;;;-0.20;95.90;;;;;;5033481;28;20207;-74
2023/03/28 03:25:44;;;;;;;2.10;2.00;;;-0.30;96.20;;;;;;5033883;28;20413;-67
2023/03/28 03:28:10;;;;;;;2.40;2.30;;;-0.30;97.10;;;;;;5034058;28;20243;-67
2023/03/28 03:30:36;;;;;;;2.57;2.43;;;-0.30;97.30;;;;;;5031441;28;20631;-74
2023/03/28 03:33:01;;;;;;;3.33;3.13;;;-0.30;96.10;;;;;;5033752;28;20434;-67
2023/03/28 03:35:33;;;;;;;2.80;2.70;;;-0.30;97.40;;;;;;5033784;28;20460;-73
2023/03/28 03:37:59;;;;;;;2.63;2.42;;;-0.30;98.40;;;;;;5034308;28;20258;-73
2023/03/28 03:40:25;;;;;;;2.30;2.00;;;-0.30;99.80;;;;;;5032230;28;20199;-73
2023/03/28 03:42:51;;;;;;;2.63;2.53;;;-0.30;99.50;;;;;;5033624;28;20274;-67
2023/03/28 03:45:17;;;;;;;2.13;2.03;;;-0.30;99.00;;;;;;5033649;28;20258;-74
2023/03/28 03:47:43;;;;;;;7.23;2.90;;;-0.30;99.40;;;;;;5033686;28;20163;-74
2023/03/28 03:50:10;;;;;;;3.00;2.72;;;-0.40;99.50;;;;;;5032692;28;20456;-67
2023/03/28 03:52:36;;;;;;;2.58;2.38;;;-0.40;98.70;;;;;;5033456;28;20253;-74
2023/03/28 03:55:02;;;;;;;3.23;3.03;;;-0.40;99.60;;;;;;5034021;28;20175;-67
2023/03/28 03:57:28;;;;;;;2.57;2.37;;;-0.40;99.70;;;;;;5042719;28;20409;-69
2023/03/28 03:59:53;;;;;;;2.60;2.47;;;-0.40;99.90;;;;;;5052567;28;20441;-74
2023/03/28 04:02:19;;;;;;;2.50;2.30;;;-0.40;99.90;;;;;;5052560;28;20243;-74
2023/03/28 04:04:46;;;;;;;2.80;2.50;;;-0.30;99.90;;;;;;5053257;28;20174;-73
2023/03/28 04:07:12;;;;;;;2.60;2.50;;;-0.30;99.90;;;;;;5053166;28;20158;-73
2023/03/28 04:09:38;;;;;;;2.63;2.50;;;-0.30;99.90;;;;;;5053098;28;20178;-67
2023/03/28 04:12:05;;;;;;;3.53;3.22;;;-0.30;99.90;;;;;;5036970;28;20195;-74
2023/03/28 04:14:31;;;;;;;2.72;2.63;;;-0.30;99.90;;;;;;5033362;28;20528;-74
2023/03/28 04:16:57;;;;;;;2.50;2.40;;;-0.40;99.90;;;;;;5032598;28;20159;-74
2023/03/28 04:19:24;;;;;;;2.47;2.27;;;-0.30;99.90;;;;;;5033039;28;20215;-68
2023/03/28 04:21:51;;;;;;;2.88;2.38;;;-0.30;99.90;;;;;;5030866;28;20555;-67
2023/03/28 04:24:23;;;;;;;6.22;3.10;;;-0.30;99.90;;;;;;5032975;28;20655;-67
2023/03/28 04:26:49;;;;;;;3.20;3.00;;;-0.30;99.90;;;;;;5033072;28;20192;-67
2023/03/28 04:29:16;;;;;;;3.10;2.80;;;-0.30;99.90;;;;;;5033718;28;20201;-74
2023/03/28 04:31:48;;;;;;;2.65;2.55;;;-0.30;99.90;;;;;;5030679;28;20733;-67
2023/03/28 04:34:24;;;;;;;2.78;2.58;;;-0.40;99.90;;;;;;5031041;28;20180;-74
2023/03/28 04:36:50;;;;;;;3.30;3.10;;;-0.50;99.90;;;;;;5032937;28;20171;-73
2023/03/28 04:39:15;;;;;;;2.57;2.43;;;-0.50;99.90;;;;;;5031699;28;20507;-74
2023/03/28 04:41:44;;;;;;;2.07;1.97;;;-0.50;99.90;;;;;;5033947;28;20187;-67
2023/03/28 04:44:10;;;;;;;2.60;2.40;;;-0.50;99.90;;;;;;5037088;28;20163;-68
2023/03/28 04:46:36;;;;;;;6.53;2.80;;;-0.60;99.90;;;;;;5055064;28;20754;-73
2023/03/28 04:49:01;;;;;;;2.97;2.77;;;-0.60;99.90;;;;;;5056544;28;20167;-73
2023/03/28 04:51:27;;;;;;;3.80;2.60;;;-0.60;99.90;;;;;;5055533;28;20210;-70
2023/03/28 04:53:53;;;;;;;2.60;2.50;;;-0.60;99.90;;;;;;5056850;28;20170;-74
2023/03/28 04:56:18;;;;;;;5.70;5.03;;;-0.60;99.90;;;;;;5056591;28;20206;-74
2023/03/28 04:58:44;;;;;;;4.03;3.70;;;-0.50;99.90;;;;;;5036863;28;20170;-74
2023/03/28 05:01:10;;;;;;;3.00;2.77;;;-0.50;99.90;;;;;;5035777;28;20222;-72
2023/03/28 05:03:36;;;;;;;3.33;3.13;;;-0.50;99.90;;;;;;5037100;28;20168;-67
2023/03/28 05:06:03;;;;;;;3.40;3.15;;;-0.50;99.90;;;;;;5036586;28;20465;-68
2023/03/28 05:08:30;;;;;;;2.75;2.55;;;-0.40;99.90;;;;;;5036032;28;20246;-74
2023/03/28 05:10:56;;;;;;;2.85;2.63;;;-0.40;99.90;;;;;;5035699;28;20179;-68
2023/03/28 05:13:21;;;;;;;2.80;2.60;;;-0.50;99.90;;;;;;5036495;28;20191;-68
2023/03/28 05:15:47;;;;;;;2.97;2.83;;;-0.50;99.90;;;;;;5036863;28;20631;-73
2023/03/28 05:18:16;;;;;;;2.58;2.38;;;-0.50;99.90;;;;;;5036029;28;20426;-74
2023/03/28 05:20:42;;;;;;;4.40;3.00;;;-0.50;99.90;;;;;;5043245;28;20586;-69
2023/03/28 05:23:08;;;;;;;3.57;3.27;;;-0.40;99.90;;;;;;5056218;28;20186;-74
2023/03/28 05:25:35;;;;;;;3.45;3.20;;;-0.40;99.90;;;;;;5044970;28;20172;-73
2023/03/28 05:28:01;;;;;;;4.15;2.95;;;-0.30;99.90;;;;;;5035736;28;20221;-69
2023/03/28 05:30:27;;;;;;;2.90;2.70;;;-0.30;99.90;;;;;;5035262;28;20171;-74
2023/03/28 05:32:53;;;;;;;4.33;3.20;;;-0.30;99.90;;;;;;5034702;28;20203;-67
2023/03/28 05:35:19;;;;;;;4.13;3.80;;;-0.30;99.90;;;;;;5036754;28;20183;-73
2023/03/28 05:37:45;;;;;;;14.53;7.80;;;-0.30;99.90;;;;;;5044729;28;20406;-74
2023/03/28 05:40:12;;;;;;;3.93;3.67;;;-0.20;99.90;;;;;;5034952;28;20456;-74
2023/03/28 05:42:38;;;;;;;3.95;2.90;;;-0.20;99.90;;;;;;5034692;28;20241;-71
2023/03/28 05:45:05;;;;;;;3.77;3.47;;;-0.30;99.90;;;;;;5035753;28;20168;-67
2023/03/28 05:47:31;;;;;;;3.13;2.93;;;-0.30;99.90;;;;;;5035403;28;20164;-67
2023/03/28 05:49:57;;;;;;;3.93;3.63;;;-0.20;99.90;;;;;;5035539;28;20404;-67
2023/03/28 05:52:23;;;;;;;10.63;3.87;;;-0.20;99.90;;;;;;5035240;28;20425;-67
2023/03/28 05:54:49;;;;;;;6.27;3.60;;;-0.20;99.90;;;;;;5034693;28;20410;-67
2023/03/28 05:57:15;;;;;;;2.90;2.60;;;-0.20;99.90;;;;;;5043550;28;20424;-67
2023/03/28 05:59:42;;;;;;;10.50;7.10;;;-0.10;99.90;;;;;;5055436;28;20802;-67
2023/03/28 06:02:15;;;;;;;4.63;4.22;;;-0.10;99.90;;;;;;5040923;28;20187;-68
2023/03/28 06:04:43;;;;;;;5.78;2.78;;;-0.10;99.90;;;;;;5055261;28;20255;-73
2023/03/28 06:07:10;;;;;;;3.20;2.90;;;-0.10;99.90;;;;;;5044210;28;20218;-66
2023/03/28 06:09:36;;;;;;;4.05;3.85;;;0.00;99.90;;;;;;5038690;28;20228;-73
2023/03/28 06:12:04;;;;;;;2.90;2.70;;;0.00;99.90;;;;;;5055573;28;20537;-67
2023/03/28 06:14:30;;;;;;;4.90;2.63;;;0.10;99.90;;;;;;5055256;28;20198;-66
2023/03/28 06:16:56;;;;;;;2.60;2.50;;;0.10;99.90;;;;;;5055250;28;20178;-67
2023/03/28 06:19:23;;;;;;;3.17;2.97;;;0.20;99.90;;;;;;5043159;28;20188;-74
2023/03/28 06:21:49;;;;;;;3.20;2.92;;;0.20;99.90;;;;;;5033097;28;20222;-67
2023/03/28 06:24:14;;;;;;;3.05;2.88;;;0.20;99.90;;;;;;5035172;28;20250;-70
2023/03/28 06:26:40;;;;;;;3.20;3.00;;;0.20;99.90;;;;;;5038749;28;20298;-67
2023/03/28 06:29:06;;;;;;;6.20;3.30;;;0.30;99.90;;;;;;5054045;28;20171;-74
2023/03/28 06:31:32;;;;;;;3.20;2.90;;;0.40;99.90;;;;;;5054096;28;20428;-67
2023/03/28 06:33:58;;;;;;;3.60;3.30;;;0.40;99.90;;;;;;5055010;28;20198;-75
2023/03/28 06:36:24;;;;;;;2.63;2.43;;;0.40;99.90;;;;;;5054925;28;20397;-67
2023/03/28 06:38:52;;;;;;;2.67;2.50;;;0.40;99.90;;;;;;5054542;28;20815;-74
2023/03/28 06:41:18;;;;;;;3.33;3.13;;;0.40;99.90;;;;;;5053526;28;20532;-70
2023/03/28 06:43:44;;;;;;;4.20;3.80;;;0.50;99.90;;;;;;5053952;28;20835;-68
2023/03/28 06:46:10;;;;;;;3.37;3.07;;;0.50;99.90;;;;;;5054728;28;20476;-73
2023/03/28 06:48:36;;;;;;;4.60;3.10;;;0.60;99.90;;;;;;5054622;28;20785;-67
2023/03/28 06:51:02;;;;;;;2.57;2.47;;;0.60;99.90;;;;;;5052401;28;20934;-73
2023/03/28 06:53:28;;;;;;;3.67;3.37;;;0.70;99.90;;;;;;5043467;28;20504;-67
2023/03/28 06:55:54;;;;;;;4.90;3.30;;;0.70;99.90;;;;;;5042199;28;20438;-74
2023/03/28 06:58:21;;;;;;;2.77;2.57;;;0.80;99.90;;;;;;5045536;28;20186;-73
2023/03/28 07:00:47;;;;;;;3.60;3.30;;;0.90;99.90;;;;;;5042404;28;20557;-68
2023/03/28 07:03:13;;;;;;;3.03;2.83;;;1.00;99.90;;;;;;5034125;28;20529;-73
2023/03/28 07:05:40;;;;;;;4.57;3.50;;;0.90;99.90;;;;;;5033912;28;20164;-73
2023/03/28 07:08:07;;;;;;;6.57;3.63;;;1.00;99.90;;;;;;5033132;28;20764;-72
2023/03/28 07:10:35;;;;;;;2.97;2.87;;;1.10;99.90;;;;;;5033532;28;20901;-73
2023/03/28 07:13:00;;;;;;;2.43;2.23;;;1.20;99.90;;;;;;5034175;28;20465;-67
2023/03/28 07:15:27;;;;;;;2.90;2.70;;;1.30;99.90;;;;;;5033177;28;20541;-73
2023/03/28 07:17:52;;;;;;;7.43;3.53;;;1.40;99.90;;;;;;5037081;28;20178;-73
2023/03/28 07:20:19;;;;;;;21.23;2.80;;;1.60;99.90;;;;;;5048808;28;20476;-67
2023/03/28 07:22:45;;;;;;;16.70;3.97;;;1.70;99.90;;;;;;5053779;28;20706;-72
2023/03/28 07:25:11;;;;;;;3.83;3.20;;;1.80;99.90;;;;;;5052361;28;20422;-67
2023/03/28 07:27:37;;;;;;;3.03;2.83;;;1.90;99.90;;;;;;5034801;28;20176;-67
2023/03/28 07:30:04;;;;;;;3.13;2.93;;;2.00;99.90;;;;;;5033726;28;20406;-72
2023/03/28 07:32:30;;;;;;;3.53;3.23;;;2.10;99.90;;;;;;5032413;28;20445;-73
2023/03/28 07:34:56;;;;;;;3.97;3.00;;;2.10;99.90;;;;;;5053298;28;20409;-68
2023/03/28 07:37:21;;;;;;;2.90;2.60;;;2.30;99.90;;;;;;5053858;28;20171;-68
2023/03/28 07:39:47;;;;;;;3.27;3.07;;;2.40;99.90;;;;;;5053632;28;20655;-73
2023/03/28 07:42:14;;;;;;;2.90;2.70;;;2.50;99.90;;;;;;5052926;28;20270;-67
2023/03/28 07:44:40;;;;;;;3.53;3.23;;;2.50;99.90;;;;;;5053793;28;20443;-67
2023/03/28 07:47:08;;;;;;;3.47;3.27;;;2.50;99.90;;;;;;5052561;28;20789;-68
2023/03/28 07:49:34;;;;;;;6.63;2.80;;;2.50;99.90;;;;;;5053633;28;20401;-73
2023/03/28 07:52:00;;;;;;;3.03;2.80;;;2.60;99.90;;;;;;5050842;28;20519;-72
2023/03/28 07:54:27;;;;;;;4.30;4.07;;;2.70;99.90;;;;;;5052237;28;20483;-67
2023/03/28 07:56:53;;;;;;;2.83;2.63;;;2.80;99.90;;;;;;5053537;28;20404;-73
2023/03/28 07:59:19;;;;;;;3.93;2.93;;;2.90;99.90;;;;;;5053358;28;20409;-73
2023/03/28 08:01:45;;;;;;;5.10;3.60;;;3.00;99.90;;;;;;5051150;28;20482;-73
2023/03/28 08:04:12;;;;;;;3.50;2.70;;;3.20;99.90;;;;;;5053370;28;20250;-68
2023/03/28 08:06:39;;;;;;;3.50;3.17;;;3.30;99.90;;;;;;5053426;28;20421;-73
2023/03/28 08:09:10;;;;;;;3.60;2.80;;;3.50;99.90;;;;;;5053144;28;20472;-68
2023/03/28 08:11:37;;;;;;;2.83;2.60;;;3.50;99.90;;;;;;5051580;28;20854;-68
2023/03/28 08:14:08;;;;;;;2.70;2.50;;;3.60;99.90;;;;;;5050668;28;20433;-69
2023/03/28 08:16:34;;;;;;;15.00;3.93;;;3.70;95.30;;;;;;5053374;28;20425;-68
2023/03/28 08:18:59;;;;;;;4.53;2.87;;;3.80;90.30;;;;;;5053096;28;20481;-68
2023/03/28 08:21:29;;;;;;;2.70;2.50;;;3.90;90.30;;;;;;5051831;28;20624;-70
2023/03/28 08:23:58;;;;;;;2.70;2.33;;;4.10;90.40;;;;;;5053200;28;20164;-73
2023/03/28 08:26:24;;;;;;;2.53;1.93;;;4.20;90.50;;;;;;5051713;28;20408;-69
2023/03/28 08:28:53;;;;;;;2.30;2.10;;;4.30;90.40;;;;;;5051797;28;20429;-70
2023/03/28 08:31:22;;;;;;;3.27;2.30;;;4.40;90.50;;;;;;5051536;28;20884;-72
2023/03/28 08:33:53;;;;;;;2.43;2.33;;;4.40;68.80;;;;;;5052839;28;20400;-70
2023/03/28 08:36:24;;;;;;;2.70;2.20;;;4.50;72.10;;;;;;5052944;28;20396;-66
2023/03/28 08:38:50;;;;;;;2.20;2.00;;;4.50;53.00;;;;;;5049648;28;20445;-68
2023/03/28 08:41:48;;;;;;;2.47;2.27;;;4.50;42.90;;;;;;5051495;28;20468;-69
2023/03/28 08:44:35;;;;;;;2.90;2.40;;;4.60;31.60;;;;;;5052803;28;20495;-73
2023/03/28 08:47:08;;;;;;;2.27;2.17;;;4.80;36.00;;;;;;5052868;28;20457;-68
2023/03/28 08:49:40;;;;;;;3.07;1.93;;;4.90;23.60;;;;;;5047835;28;20431;-71
2023/03/28 08:52:07;;;;;;;2.07;1.97;;;5.00;5.00;;;;;;5050491;28;20461;-71
2023/03/28 08:54:48;;;;;;;5.90;2.10;;;5.20;1.00;;;;;;5052800;28;20497;-68
2023/03/28 08:57:22;;;;;;;5.40;1.87;;;5.40;1.00;;;;;;5050746;28;20524;-71
2023/03/28 09:00:13;;;;;;;2.27;2.17;;;5.50;1.00;;;;;;5048869;28;20515;-74
2023/03/28 09:02:40;;;;;;;2.57;2.33;;;5.70;1.00;;;;;;5052568;28;20417;-70
2023/03/28 09:05:12;;;;;;;2.60;1.60;;;5.90;1.00;;;;;;5052614;28;20408;-71
2023/03/28 09:07:53;;;;;;;3.00;1.70;;;6.00;1.00;;;;;;5052089;28;20406;-70
2023/03/28 09:10:21;;;;;;;3.70;1.70;;;6.10;1.00;;;;;;5051898;28;20432;-68
2023/03/28 09:13:12;;;;;;;2.30;1.80;;;6.30;1.00;;;;;;5050814;28;20481;-70
2023/03/28 09:16:09;;;;;;;2.80;2.00;;;6.40;1.00;;;;;;5051251;28;20817;-72
2023/03/28 09:18:53;;;;;;;1.83;1.57;;;6.60;1.00;;;;;;5052554;28;20397;-67
2023/03/28 09:21:44;;;;;;;1.80;1.70;;;6.70;1.00;;;;;;5051460;28;20538;-68
2023/03/28 09:24:22;;;;;;;1.97;1.53;;;6.70;1.00;;;;;;5051883;28;20393;-72
2023/03/28 09:27:01;;;;;;;1.83;1.30;;;6.80;1.00;;;;;;5051589;28;20429;-68
2023/03/28 09:29:28;;;;;;;1.67;1.57;;;7.10;1.00;;;;;;5056249;28;20420;-68
2023/03/28 09:32:19;;;;;;;2.07;1.63;;;7.40;1.00;;;;;;5054046;28;20410;-71
2023/03/28 09:34:49;;;;;;;1.80;1.70;;;7.60;1.00;;;;;;5056120;28;20450;-67
2023/03/28 09:37:36;;;;;;;3.47;1.87;;;8.00;1.00;;;;;;5056119;28;20398;-72
2023/03/28 09:40:15;;;;;;;3.50;1.50;;;8.30;1.00;;;;;;5055629;28;20485;-70
2023/03/28 09:42:57;;;;;;;4.80;1.97;;;8.50;1.00;;;;;;5054214;28;20483;-73
2023/03/28 09:45:34;;;;;;;3.93;2.00;;;8.80;1.00;;;;;;5055964;28;20412;-67
2023/03/28 09:48:02;;;;;;;2.40;1.37;;;8.90;1.00;;;;;;5054547;28;20934;-72
2023/03/28 09:50:28;;;;;;;1.50;1.40;;;9.00;1.00;;;;;;5054883;28;20894;-68
2023/03/28 09:52:57;;;;;;;2.60;1.53;;;9.20;1.00;;;;;;5054713;28;20812;-67
2023/03/28 09:55:25;;;;;;;4.00;1.70;;;9.40;1.00;;;;;;5054679;28;20453;-71
2023/03/28 09:58:13;;;;;;;1.70;1.60;;;9.50;1.00;;;;;;5054337;28;20388;-69
2023/03/28 10:00:41;;;;;;;2.50;1.90;;;9.60;1.00;;;;;;5054605;28;20451;-71
2023/03/28 10:03:28;;;;;;;2.60;1.60;;;9.80;1.00;;;;;;5054859;28;20399;-68
2023/03/28 10:05:58;;;;;;;1.30;1.13;;;9.70;1.00;;;;;;5054558;28;20479;-71
2023/03/28 10:08:35;;;;;;;1.50;1.40;;;9.70;1.00;;;;;;5055055;28;20403;-68
2023/03/28 10:11:13;;;;;;;3.13;2.17;;;9.80;1.00;;;;;;5054684;28;20379;-71
2023/03/28 10:13:42;;;;;;;2.00;1.90;;;10.00;1.00;;;;;;5055425;28;20402;-68
2023/03/28 10:16:11;;;;;;;7.43;1.67;;;10.20;1.00;;;;;;5051522;28;21129;-72
2023/03/28 10:18:39;;;;;;;1.30;1.20;;;10.40;1.00;;;;;;5038952;28;20520;-73
2023/03/28 10:21:16;;;;;;;1.73;1.30;;;10.60;1.00;;;;;;5033684;28;20831;-71
2023/03/28 10:23:55;;;;;;;1.50;1.40;;;11.10;1.00;;;;;;5035355;28;20372;-71
2023/03/28 10:26:24;;;;;;;2.90;1.63;;;11.20;1.00;;;;;;5035067;28;20390;-68
2023/03/28 10:28:53;;;;;;;1.57;1.47;;;11.40;1.00;;;;;;5037341;28;20405;-68
2023/03/28 10:31:27;;;;;;;1.97;1.57;;;11.60;1.00;;;;;;5054181;28;20379;-68
2023/03/28 10:33:55;;;;;;;3.53;1.60;;;11.80;1.00;;;;;;5055076;28;20514;-72
2023/03/28 10:36:33;;;;;;;2.73;1.10;;;12.20;1.00;;;;;;5054989;28;20480;-69
2023/03/28 10:39:11;;;;;;;1.10;1.00;;;12.50;1.00;;;;;;5053275;28;20425;-69
2023/03/28 10:41:51;;;;;;;3.23;1.60;;;12.40;1.00;;;;;;5054041;28;20429;-72
2023/03/28 10:44:34;;;;;;;6.40;1.70;;;12.10;1.00;;;;;;5052063;28;20519;-72
2023/03/28 10:47:10;;;;;;;3.60;1.43;;;12.50;1.00;;;;;;5049076;28;20913;-72
2023/03/28 10:49:54;;;;;;;1.60;1.20;;;12.70;1.00;;;;;;5035007;28;20409;-72
2023/03/28 10:52:31;;;;;;;1.60;1.40;;;12.70;1.00;;;;;;5032892;28;20851;-69
2023/03/28 10:55:06;;;;;;;5.37;1.97;;;12.60;1.00;;;;;;5033787;28;20400;-69
2023/03/28 10:57:41;;;;;;;4.67;1.53;;;12.60;1.00;;;;;;5047406;28;20520;-73
2023/03/28 11:00:18;;;;;;;1.53;1.00;;;12.60;1.00;;;;;;5053522;28;20448;-70
2023/03/28 11:03:09;;;;;;;1.87;1.77;;;12.50;1.00;;;;;;5054246;28;20783;-69
2023/03/28 11:06:03;;;;;;;3.03;1.70;;;12.00;1.00;;;;;;5054457;28;20769;-72
2023/03/28 11:08:54;;;;;;;1.40;1.20;;;11.50;1.00;;;;;;5054320;28;20380;-71
2023/03/28 11:11:26;;;;;;;2.83;1.10;;;11.40;1.00;;;;;;5052291;28;20444;-73
2023/03/28 11:14:16;;;;;;;3.33;1.87;;;10.90;1.00;;;;;;5052933;28;20432;-69
2023/03/28 11:17:03;;;;;;;3.33;1.57;;;10.40;1.00;;;;;;5053646;28;20391;-72
2023/03/28 11:19:59;;;;;;;3.23;1.60;;;10.00;1.00;;;;;;5054087;28;20466;-69
2023/03/28 11:22:31;;;;;;;3.33;1.80;;;9.90;1.00;;;;;;5053344;28;20407;-69
2023/03/28 11:25:15;;;;;;;3.17;1.50;;;9.80;1.00;;;;;;5045347;28;20436;-72
2023/03/28 11:27:55;;;;;;;4.07;1.57;;;9.70;1.00;;;;;;5034103;28;20415;-74
2023/03/28 11:30:27;;;;;;;3.53;1.50;;;9.40;1.00;;;;;;5033268;28;20387;-71
2023/03/28 11:33:12;;;;;;;2.70;1.43;;;9.30;1.00;;;;;;5032893;28;20503;-69
2023/03/28 11:35:47;;;;;;;1.87;1.77;;;9.20;1.00;;;;;;5033446;28;20766;-72
2023/03/28 11:38:13;;;;;;;7.90;1.70;;;9.10;1.00;;;;;;5036986;28;20523;-72
2023/03/28 11:40:44;;;;;;;1.83;1.63;;;8.80;1.00;;;;;;5051519;28;20840;-72
2023/03/28 11:43:15;;;;;;;2.73;1.60;;;8.70;1.00;;;;;;5052576;28;20197;-72
2023/03/28 11:45:46;;;;;;;3.63;2.10;;;9.10;1.00;;;;;;5053735;28;20414;-72
2023/03/28 11:48:33;;;;;;;2.87;1.80;;;9.20;1.00;;;;;;5053780;28;20459;-69
2023/03/28 11:51:19;;;;;;;2.00;1.80;;;9.40;1.00;;;;;;5051792;28;20516;-71
2023/03/28 11:53:53;;;;;;;2.13;1.63;;;9.20;1.00;;;;;;5051461;28;20441;-72
2023/03/28 11:56:38;;;;;;;2.47;1.60;;;9.10;1.00;;;;;;5053647;28;20378;-69
2023/03/28 11:59:13;;;;;;;1.73;1.63;;;9.00;1.00;;;;;;5052333;28;20451;-69
2023/03/28 12:01:44;;;;;;;4.60;2.13;;;9.20;1.00;;;;;;5052638;28;20811;-69
2023/03/28 12:04:19;;;;;;;5.50;1.90;;;9.30;1.00;;;;;;5033719;28;20936;-68
2023/03/28 12:07:20;;;;;;;5.80;2.40;;;9.30;1.00;;;;;;5033409;28;20373;-69
2023/03/28 12:10:26;;;;;;;4.10;1.63;;;9.30;1.00;;;;;;5033164;28;20406;-70
2023/03/28 12:12:58;;;;;;;3.33;1.77;;;9.30;1.00;;;;;;5033073;28;20401;-70
2023/03/28 12:15:39;;;;;;;4.57;1.97;;;9.60;1.00;;;;;;5032624;28;20402;-73
2023/03/28 12:18:12;;;;;;;1.70;1.60;;;10.50;1.00;;;;;;5033150;28;20373;-74
2023/03/28 12:20:59;;;;;;;2.67;1.60;;;11.50;1.00;;;;;;5032234;28;20420;-74
2023/03/28 12:23:59;;;;;;;4.07;1.90;;;11.30;1.00;;;;;;5033048;28;20410;-70
2023/03/28 12:26:31;;;;;;;6.17;2.30;;;10.50;1.00;;;;;;5031866;28;20423;-75
2023/03/28 12:29:03;;;;;;;2.20;1.60;;;10.00;1.00;;;;;;5032747;28;20773;-71
2023/03/28 12:31:35;;;;;;;1.63;1.53;;;9.70;1.00;;;;;;5031784;28;20424;-74
2023/03/28 12:34:13;;;;;;;2.30;2.10;;;9.50;1.00;;;;;;5032885;28;20380;-73
2023/03/28 12:36:48;;;;;;;2.13;2.00;;;9.00;1.00;;;;;;5033002;28;20379;-69
2023/03/28 12:39:23;;;;;;;5.03;2.50;;;8.70;1.00;;;;;;5032947;28;20905;-69
2023/03/28 12:41:51;;;;;;;3.27;2.03;;;8.30;1.00;;;;;;5031916;28;20401;-69
2023/03/28 12:44:25;;;;;;;2.70;1.93;;;8.10;1.00;;;;;;5043405;28;20935;-73
2023/03/28 12:46:57;;;;;;;2.43;2.23;;;7.90;1.00;;;;;;5051107;28;20403;-73
2023/03/28 12:49:31;;;;;;;4.20;2.80;;;7.60;1.00;;;;;;5052423;28;20850;-70
2023/03/28 12:52:00;;;;;;;5.40;2.27;;;7.50;1.00;;;;;;5037662;28;20534;-73
2023/03/28 12:54:30;;;;;;;1.70;1.60;;;7.60;1.00;;;;;;5048299;28;20425;-73
2023/03/28 12:57:02;;;;;;;6.73;2.50;;;7.60;1.00;;;;;;5051764;28;20406;-69
2023/03/28 12:59:43;;;;;;;3.27;1.83;;;7.70;1.00;;;;;;5052492;28;20405;-72
2023/03/28 13:02:33;;;;;;;3.80;2.43;;;7.60;1.00;;;;;;5051009;28;20453;-73
2023/03/28 13:05:28;;;;;;;6.70;2.13;;;7.60;1.00;;;;;;5049490;28;20960;-68
2023/03/28 13:07:57;;;;;;;3.80;2.03;;;7.40;1.00;;;;;;5037726;28;20426;-71
2023/03/28 13:10:29;;;;;;;3.50;1.90;;;7.20;1.00;;;;;;5049024;28;20410;-67
2023/03/28 13:13:16;;;;;;;2.33;2.00;;;6.90;1.00;;;;;;5051745;28;20576;-73
2023/03/28 13:16:15;;;;;;;2.13;2.03;;;6.90;1.00;;;;;;5055474;28;20469;-73
2023/03/28 13:18:47;;;;;;;4.80;2.23;;;7.00;1.00;;;;;;5049669;28;20483;-72
2023/03/28 13:21:48;;;;;;;1.97;1.87;;;7.00;1.00;;;;;;5037550;28;20466;-73
2023/03/28 13:24:34;;;;;;;3.50;2.10;;;7.10;1.00;;;;;;5045073;28;20419;-69